Погода Паратингана 2 недели

Баия, Бразилия

13 - 26 июля
  • 13июля
    Сегодня
    +18°
    +31°
    Небольшая облачность
    ВремяПогодаТемператураВлажностьДавлениеВетер, м/сВероятность осадков
    00:00Ясно и безоблачно+22°C62 %728 мм3.4 м/с5 %
    03:00Ясно и безоблачно+20°C71 %728 мм3.4 м/с5 %
    06:00Небольшая облачность+18°C78 %728 мм2.6 м/с5 %
    09:00Небольшая облачность+23°C50 %730 мм3.7 м/с5 %
    12:00Небольшая облачность+27°C32 %729 мм3.4 м/с5 %
    15:00Небольшая облачность+31°C26 %727 мм3.1 м/с5 %
    18:00Облачно с прояснениями+26°C31 %726 мм2.9 м/с5 %
    21:00Облачно с прояснениями+23°C45 %728 мм2.3 м/с5 %
  • 14июля
    Воскресенье
    +19°
    +33°
    Облачно с прояснениями
    ВремяПогодаТемператураВлажностьДавлениеВетер, м/сВероятность осадков
    00:00Практически безоблачно+21°C58 %728 мм3.4 м/с5 %
    03:00Практически безоблачно+20°C66 %727 мм4.0 м/с5 %
    06:00Ясно и безоблачно+18°C69 %728 мм3.6 м/с5 %
    09:00Практически безоблачно+24°C49 %729 мм4.1 м/с5 %
    12:00Облачно с прояснениями+28°C32 %729 мм3.3 м/с5 %
    15:00Облачно с прояснениями+32°C25 %726 мм3.1 м/с5 %
    18:00Практически безоблачно+27°C36 %726 мм3.8 м/с5 %
    21:00Небольшая облачность+25°C46 %728 мм3.9 м/с5 %
  • 15июля
    Понедельник
    +19°
    +33°
    Ясно и безоблачно
    ВремяПогодаТемператураВлажностьДавлениеВетер, м/сВероятность осадков
    00:00Ясно и безоблачно+22°C61 %728 мм3.7 м/с5 %
    03:00Ясно и безоблачно+21°C70 %727 мм3.3 м/с5 %
    06:00Ясно и безоблачно+19°C78 %728 мм1.4 м/с5 %
    09:00Ясно и безоблачно+25°C53 %730 мм2.9 м/с5 %
    12:00Ясно и безоблачно+29°C30 %729 мм2.2 м/с5 %
    15:00Ясно и безоблачно+33°C25 %727 мм2.4 м/с5 %
    18:00Ясно и безоблачно+27°C40 %727 мм1.7 м/с5 %
    21:00Ясно и безоблачно+25°C45 %728 мм3.9 м/с5 %
  • 16июля
    Вторник
    +19°
    +33°
    Ясно и безоблачно
    ВремяПогодаТемператураВлажностьДавлениеВетер, м/сВероятность осадков
    00:00Ясно и безоблачно+22°C60 %728 мм3.6 м/с5 %
    03:00Ясно и безоблачно+21°C72 %727 мм3.1 м/с5 %
    06:00Ясно и безоблачно+20°C74 %728 мм2.1 м/с5 %
    09:00Ясно и безоблачно+25°C49 %730 мм3.7 м/с5 %
    12:00Ясно и безоблачно+29°C34 %729 мм2.7 м/с5 %
    15:00Ясно и безоблачно+33°C28 %727 мм2.5 м/с5 %
    18:00Ясно и безоблачно+28°C35 %727 мм3.0 м/с5 %
    21:00Ясно и безоблачно+26°C48 %729 мм3.9 м/с5 %
  • 17июля
    Среда
    +18°
    +34°
    Практически безоблачно
    ВремяПогодаТемператураВлажностьДавлениеВетер, м/сВероятность осадков
    00:00Ясно и безоблачно+23°C62 %729 мм3.3 м/с5 %
    03:00Ясно и безоблачно+21°C69 %728 мм3.1 м/с5 %
    06:00Ясно и безоблачно+20°C74 %729 мм2.4 м/с5 %
    09:00Ясно и безоблачно+25°C48 %730 мм2.9 м/с5 %
    12:00Ясно и безоблачно+30°C33 %729 мм3.1 м/с5 %
    15:00Практически безоблачно+33°C26 %726 мм1.6 м/с5 %
    18:00Пасмурно, сплошная облачность+29°C32 %726 мм0.8 м/с5 %
    21:00Ясно и безоблачно+26°C46 %728 мм3.1 м/с5 %
Мы используем cookies
Соглашаюсь